WIIIWABB

Guest
Details From WIII - Jakarta Sukarno-hatta Intl
To WABB - Biak Frans Kaisiepo
Flight Number -
Tags Generated
Created
Modified
Stats Distance 1,790 nm / 3,314 km
Max Altitude 0 ft / 0 m
Waypoints 4
Social Downloads 1
Likes 0
Share VATSIM

Download

Looking for another format? Having issues loading an existing format? Contact us
Advertisement - Login to hide

Notes

Generated

Route

WIII RUPKA BIK WABB

ID Type Via Altitude Latitude Longitude Leg Dist Tot Dist Heading (true) Name
O WIII APT - 0 ft / 0 m -6.12106˚ 106.63876˚ - 0 nm - -
RUPKA FIX - 0 ft / 0 m -5.47733˚ 110.36481˚ 225 nm 225 nm 80° / 80° -
BIK VOR - 0 ft / 0 m -1.18247˚ 136.08614˚ 1563 nm 1789 nm 81° / 80° BIAK VOR-DME
O WABB APT - 0 ft / 0 m -1.18473˚ 136.09286˚ 0 nm 1789 nm 109° / 109° -

Altitude Profile

Advertisement - Login to hide

Weather


0- 5 10 15 20 25 30 35+ Temperature / ° C

Clouds and Precipitation
Forecast for 2017-12-13 06:00 UTC. Updated 14 minutes ago

Ground ~20,000 ft ~40,000 ft Winds

WIII

Details ICAO WIII (CGK)
Name Jakarta Sukarno-Hatta Intl
Region Indonesia
Timezone Asia/Jakarta (UTC+7.0)
Stats Elevation 34 ft / 10 m (AMSL)
Location -6.125743° 106.656405°
Runways 2
Magnetic Variation 0.630° E

METAR

WIII 130530Z 24011KT 8000 SCT020 29/24 Q1010 NOSIG

Decode

TAF

Not found

Departure Runways

ID Width Length Bearing (true) Bearing (mag) Surface Threshold Offset Overrun Length
07L 197 ft / 60 m 11,823 ft / 3,604 m 68.13° 67.50° Concrete 0 ft / 0 m 200 ft / 61 m
07R 197 ft / 60 m 12,024 ft / 3,665 m 68.12° 67.49° Concrete 0 ft / 0 m 200 ft / 61 m
25L 197 ft / 60 m 12,024 ft / 3,665 m 248.12° 247.49° Concrete 0 ft / 0 m 200 ft / 61 m
25R 197 ft / 60 m 11,823 ft / 3,604 m 248.12° 247.49° Concrete 0 ft / 0 m 200 ft / 61 m

WABB

Details ICAO WABB (BIK)
Name Biak Frans Kaisiepo
Region Indonesia
Timezone Asia/Jayapura (UTC+9.0)
Stats Elevation 46 ft / 14 m (AMSL)
Location -1.190022° 136.107988°
Runways 1
Magnetic Variation 2.087° E

METAR

WABB 130400Z 32005KT 9000 -RA FEW017CB SCT018 OVC100 28/25 Q1006

Decode

TAF

TAF WABB 122300Z 1300/1406 33007KT 9999 SCT018 TEMPO 1300/1303 6000 RA FEW017CB BECMG 1309/1311 00000KT

Decode

Destination Runways

ID Width Length Bearing (true) Bearing (mag) Surface Threshold Offset Overrun Length
11 151 ft / 46 m 11,697 ft / 3,565 m 109.30° 107.21° Concrete 0 ft / 0 m 194 ft / 59 m
29 151 ft / 46 m 11,697 ft / 3,565 m 289.30° 287.21° Concrete 0 ft / 0 m 200 ft / 61 m

Approach Navaids

Runway Type Ident Frequency Range Bearing (true) Bearing (mag) Slope Elevation
11 Localiser IBIK 110.50 MHz 18 nm / 33 km 109.38° 107.29° - 25 ft / 8 m (AMSL)
11 Glidescope IBIK 110.50 MHz 10 nm / 19 km 109.30° 107.21° 3.00° 36 ft / 11 m (AMSL)

Popular Alternatives